createdAt,value
2022-12-05T00:02:39.079Z,103211.44
2022-12-05T00:06:04.090Z,103195.45
2022-12-05T00:09:20.093Z,103201.25
2022-12-05T00:12:44.719Z,103195.89
2022-12-05T00:16:06.494Z,103190.13
2022-12-05T00:19:56.792Z,103183.91
2022-12-05T00:23:18.584Z,103187.00
2022-12-05T00:27:27.573Z,103183.01
2022-12-05T00:31:21.567Z,103190.56
2022-12-05T00:38:08.923Z,103179.88
2022-12-05T00:41:51.323Z,103178.97
2022-12-05T00:45:14.257Z,103183.00
2022-12-05T00:48:41.644Z,103173.22
2022-12-05T00:52:01.447Z,103179.45
2022-12-05T00:55:17.735Z,103177.69
2022-12-05T00:58:38.656Z,103172.80
2022-12-05T01:01:58.258Z,103176.79
2022-12-05T01:05:12.501Z,103173.27
2022-12-05T01:08:25.982Z,103167.94
2022-12-05T01:11:52.067Z,103173.27
2022-12-05T01:15:13.322Z,103169.70
2022-12-05T01:18:57.068Z,103165.70
2022-12-05T01:22:10.584Z,103164.80
2022-12-05T01:25:41.444Z,103159.48
2022-12-05T01:28:58.109Z,103160.34
2022-12-05T01:32:20.219Z,103168.80
2022-12-05T01:35:38.215Z,103171.89
2022-12-05T01:43:22.873Z,103171.45
2022-12-05T01:51:02.811Z,103169.70
2022-12-05T01:54:44.595Z,103167.03
2022-12-05T01:58:23.051Z,103167.47
2022-12-05T02:01:51.903Z,103169.70
2022-12-05T02:05:27.734Z,103157.69
2022-12-05T02:08:48.082Z,103173.22
2022-12-05T02:12:17.176Z,103162.14
2022-12-05T02:15:57.077Z,103162.58
2022-12-05T02:19:26.638Z,103161.67
2022-12-05T02:23:37.649Z,103161.23
2022-12-05T02:27:07.357Z,103158.58
2022-12-05T02:30:32.121Z,103160.77
2022-12-05T02:34:14.158Z,103150.12
2022-12-05T02:38:04.800Z,103147.45
2022-12-05T02:41:32.421Z,103140.80
2022-12-05T02:45:12.514Z,103146.56
2022-12-05T02:48:29.979Z,103147.03
2022-12-05T02:51:45.740Z,103145.70
2022-12-05T02:55:04.301Z,103142.14
2022-12-05T02:58:31.512Z,103145.70
2022-12-05T03:01:54.978Z,103143.94
2022-12-05T03:09:03.503Z,103144.80
2022-12-05T03:12:41.770Z,103144.80
2022-12-05T03:16:04.645Z,103150.12
2022-12-05T03:19:42.822Z,103145.27
2022-12-05T03:23:22.638Z,103145.70
2022-12-05T03:27:16.900Z,103145.70
2022-12-05T03:30:57.273Z,103143.94
2022-12-05T03:34:15.225Z,103142.61
2022-12-05T03:38:06.773Z,103144.80
2022-12-05T03:45:24.691Z,103151.91
2022-12-05T03:49:23.175Z,103147.45
2022-12-05T03:53:18.526Z,103142.13
2022-12-05T03:56:38.163Z,103148.34
2022-12-05T03:59:59.598Z,103148.34
2022-12-05T04:03:34.103Z,103146.13
2022-12-05T04:07:07.071Z,103135.48
2022-12-05T04:10:25.950Z,103128.83
2022-12-05T04:14:07.766Z,103128.83
2022-12-05T04:17:36.470Z,103130.16
2022-12-05T04:21:15.277Z,103136.81
2022-12-05T04:24:54.265Z,103133.67
2022-12-05T04:28:53.563Z,103131.01
2022-12-05T04:32:25.863Z,103131.01
2022-12-05T04:35:46.081Z,103134.56
2022-12-05T04:39:20.516Z,103131.48
2022-12-05T04:42:40.183Z,103130.15
2022-12-05T04:45:55.867Z,103127.02
2022-12-05T04:49:16.513Z,103123.49
2022-12-05T04:52:38.403Z,103132.80
2022-12-05T04:55:52.044Z,103125.25
2022-12-05T04:59:14.681Z,103113.28
2022-12-05T05:02:34.459Z,103113.28
2022-12-05T05:05:55.220Z,103113.28
2022-12-05T05:09:22.368Z,103117.70
2022-12-05T05:12:48.744Z,103111.52
2022-12-05T05:19:20.941Z,103106.62
2022-12-05T05:22:54.268Z,103108.37
2022-12-05T05:26:22.097Z,103120.34
2022-12-05T05:29:56.426Z,103114.13
2022-12-05T05:33:30.187Z,103121.20
2022-12-05T05:50:55.403Z,103130.08
2022-12-05T05:54:17.300Z,103125.20
2022-12-05T05:58:10.521Z,103127.44
2022-12-05T06:02:03.942Z,103124.34
2022-12-05T06:13:35.950Z,103129.67
2022-12-05T06:17:09.448Z,103130.57
2022-12-05T06:20:22.251Z,103135.91
2022-12-05T06:23:43.624Z,103124.84
2022-12-05T06:27:07.139Z,103124.84
2022-12-05T07:04:00.982Z,103125.33
2022-12-05T07:07:18.222Z,103112.89
2022-12-05T07:14:46.221Z,103116.87
2022-12-05T07:17:46.614Z,103122.63
2022-12-05T07:21:17.282Z,103124.41
2022-12-05T07:24:27.200Z,103111.95
2022-12-05T07:27:38.388Z,103111.97
2022-12-05T07:30:47.190Z,103104.81
2022-12-05T07:33:57.874Z,103104.84
2022-12-05T07:51:58.292Z,103105.08
2022-12-05T07:55:18.023Z,103109.06
2022-12-05T07:58:40.720Z,103099.22
2022-12-05T08:01:58.434Z,103102.75
2022-12-05T08:05:16.734Z,103106.26
2022-12-05T08:16:11.305Z,103087.44
2022-12-05T08:19:34.603Z,103077.97
2022-12-05T08:22:55.564Z,103073.40
2022-12-05T08:30:09.509Z,103065.65
2022-12-05T08:33:21.553Z,103063.31
2022-12-05T08:36:32.436Z,103061.41
2022-12-05T08:39:43.663Z,103053.68
2022-12-05T08:42:56.524Z,103049.16
2022-12-05T08:46:19.461Z,103049.55
2022-12-05T08:49:33.165Z,103034.39
2022-12-05T08:52:53.240Z,103032.95
2022-12-05T08:56:04.803Z,103031.95
2022-12-05T08:59:18.329Z,103025.16
2022-12-05T09:02:33.301Z,103027.77
2022-12-05T09:05:53.798Z,103019.67
2022-12-05T09:09:13.639Z,103017.31
2022-12-05T09:20:34.421Z,103000.86
2022-12-05T09:24:32.667Z,102990.92
2022-12-05T09:28:00.530Z,102978.34
2022-12-05T09:31:26.066Z,102975.64
2022-12-05T09:34:49.204Z,102974.27
2022-12-05T09:38:06.701Z,102972.31
2022-12-05T09:45:32.660Z,102972.92
2022-12-05T09:48:53.246Z,102969.63
2022-12-05T09:52:09.059Z,102958.38
2022-12-05T09:55:34.105Z,102962.77
2022-12-05T09:59:18.620Z,102966.16
2022-12-05T10:02:12.231Z,102952.95
2022-12-05T10:15:02.537Z,102925.28
2022-12-05T10:19:20.341Z,102914.37
2022-12-05T10:29:07.602Z,102910.30
2022-12-05T10:35:10.466Z,102905.38
2022-12-05T10:41:28.055Z,102906.97
2022-12-05T10:44:53.670Z,102900.06
2022-12-05T10:56:42.523Z,102898.81
2022-12-05T11:27:44.330Z,102854.25
2022-12-05T11:30:55.210Z,102850.16
2022-12-05T11:38:10.737Z,102844.25
2022-12-05T11:41:55.458Z,102839.37
2022-12-05T11:45:52.586Z,102842.61
2022-12-05T11:49:30.750Z,102835.08
2022-12-05T11:53:18.525Z,102829.19
2022-12-05T11:56:52.516Z,102830.37
2022-12-05T12:00:21.049Z,102824.34
2022-12-05T12:04:27.253Z,102812.77
2022-12-05T12:08:26.233Z,102824.10
2022-12-05T12:12:15.199Z,102818.11
2022-12-05T12:16:05.192Z,102815.70
2022-12-05T12:19:44.739Z,102810.38
2022-12-05T12:23:12.856Z,102812.03
2022-12-05T12:26:59.611Z,102812.90
2022-12-05T12:30:46.342Z,102814.50
2022-12-05T12:54:54.727Z,102806.86
2022-12-05T12:58:28.157Z,102799.39
2022-12-05T13:02:15.678Z,102799.89
2022-12-05T13:06:18.128Z,102793.77
2022-12-05T13:10:08.691Z,102788.26
2022-12-05T13:21:26.914Z,102792.59
2022-12-05T13:25:09.339Z,102788.97
2022-12-05T13:37:35.474Z,102780.97
2022-12-05T13:41:52.619Z,102780.83
2022-12-05T13:53:24.684Z,102787.86
2022-12-05T13:57:30.683Z,102790.86
2022-12-05T14:01:05.753Z,102789.67
2022-12-05T14:16:36.966Z,102795.78
2022-12-05T14:23:56.719Z,102798.89
2022-12-05T14:27:55.018Z,102792.33
2022-12-05T14:31:21.972Z,102791.57
2022-12-05T14:35:07.806Z,102795.66
2022-12-05T14:39:10.184Z,102790.88
2022-12-05T14:42:56.485Z,102788.27
2022-12-05T14:51:10.428Z,102772.46
2022-12-05T14:54:52.266Z,102777.91
2022-12-05T14:59:06.001Z,102780.69
2022-12-05T15:06:36.727Z,102782.19
2022-12-05T15:10:33.223Z,102783.18
2022-12-05T15:14:18.275Z,102784.14
2022-12-05T15:17:51.515Z,102777.53
2022-12-05T15:25:07.434Z,102774.02
2022-12-05T15:42:31.392Z,102759.76
2022-12-05T15:46:35.109Z,102751.05
2022-12-05T16:04:12.792Z,102735.94
2022-12-05T16:07:32.574Z,102736.09
2022-12-05T16:11:05.539Z,102731.20
2022-12-05T16:27:02.357Z,102720.51
2022-12-05T16:34:02.235Z,102721.84
2022-12-05T17:30:37.986Z,102719.20
2022-12-05T17:34:20.835Z,102677.63
2022-12-05T17:37:47.592Z,102678.91
2022-12-05T17:41:40.454Z,102690.49
2022-12-05T17:45:02.320Z,102690.91
2022-12-05T17:48:41.800Z,102685.50
2022-12-05T17:52:25.401Z,102691.77
2022-12-05T17:55:57.476Z,102686.84
2022-12-05T17:59:56.785Z,102694.78
2022-12-05T18:06:55.138Z,102699.12
2022-12-05T18:10:25.774Z,102700.55
2022-12-05T18:13:49.073Z,102703.27
